Airfield :
LOGIN :

Register | Disclaimer

   EN    FR    IT 

 










Legend :    VFR   Marginal VFR   IFR   Intensive IFR   Very Intensive IFR
Visi :
Ceiling :
>= 8 km
>= 3000ft
5 to 8 km
1000 to 3000 ft
1500m to 5 km
500 to 1000 ft
800 to 1500m
200 to 500 ft
< 800m
< 200 ft
Symbols :   Thunderstorms  Fog  Heavy snow  Heavy precipitations  Wind > 20 kt
SIGMETs :     Misc.  Thunderstorms  Icing  Turbulence  Mountain Waves  Volcanic Ashes







- Airport Elevation : 359 ft
- IATA code : BVA
- Download approach charts


LFOB - Beauvais

CURRENT METAR :
  • 241530Z AUTO 24005KT 200V280 9999 FEW041/// BKN047/// BKN060/// ///CB 23/14 Q1015 TEMPO VRB15G25KT 1200 TSRAGR

EXPIRED METARs :
  • 241500Z AUTO VRB02KT 9999 BKN043/// BKN052/// BKN084/// ///CB 23/15 Q1015 TEMPO VRB15G25KT 1200 TSRAGR
  • 241400Z AUTO VRB02KT 9999 FEW036 SCT047 BKN090 22/15 Q1016 TEMPO VRB15G25KT 1200 TSRAGR BKN030CB
  • 241330Z AUTO VRB02KT 9999 FEW032 SCT056 BKN072 22/14 Q1016 TEMPO VRB15G25KT 1200 TSRAGR BKN030CB
  • 241300Z AUTO VRB02KT 9999 SCT031 SCT046 BKN058 22/15 Q1016 TEMPO VRB15G25KT 1200 TSRAGR BKN030CB

TAF TAF LFOB
Valid from the 24 at 12:00 until the 25 at 12:00 UTC


241100Z 2412/2512 VRB03KT 9999 SCT030
TEMPO 2413/2418 4000 SHRA BKN030CB
PROB40
TEMPO 2413/2418 VRB15G25KT 1200 TSRAGR
BECMG 2422/2424 3000 BR
BECMG 2500/2503 0200 FG VV///
BECMG 2506/2508 3000 BR BKN005
BECMG 2508/2511 9999 NSW SCT030
ATIS : +33 3 44 11 49 28
No reported NOTAMs for that airfield.
3 SIGMETs reported for the Paris FIR (LFFF) :
 
Embedded thunderstorms
LFFF SIGMET 4 VALID 241600/241800 LFPW
LFFF PARIS FIR/UIR EMBD TS OBS WI N5100 E00230 - N5030 E00345 - N4900 E00245 - N4915 E00030 - N5100 E00230 TOP FL370 MOV N 10KT NC=
Embedded thunderstorms
LFFF SIGMET 3 VALID 241415/241600 LFPW
LFFF PARIS FIR/UIR EMBD TS OBS WI N5045 E00300 - N5015 E00415 - N4930 E00045 - N5000 E00015 - N5045 E00300 TOP FL370 MOV NW 10KT INTSF=
Embedded thunderstorms
LFFF SIGMET 2 VALID 241400/241600 LFPW
LFFF PARIS FIR/UIR EMBD TS OBS WI N4915 E00530 - N4900 E00445 - N4830 E00530 - N4830 E00500 - N4900 E00430 - N4930 E00345 - N5000 E00430 - N4930 E00530 TOP FL360 MOV NNW 10KT NC=



MET'MAP, your aeronautical weather chart ! - Copyright ORBIFLY December 2007 - Disclaimer

ORBIFLY MET'MAP TEAM :

Programming & Development : Alexandra Zaïnal
Concept & Development : Baudouin d'Aumeries
Co-Development & Prog : Marc-Olivier Méhu
Technical & hardware support : Manuel Goepfert

Contact : metmap@orbifly.com




SOURCES & CREDITS :

   NOAA